RJAK(METAR)
04/24 09:00
METAR RJAK 240000Z 17007KT 9999 BKN014 OVC150 20/16 Q1019 RMK 5CU014
8AC150 A3009 WIND EST=
戻る
トップページへ戻る
IMOC Co,.Ltd.